Главная страница
METAR-TAF:

METAR-TAF

Аэропорты :

Триполи, Ливия

широта: 32-54N, долгота: 13-17E, высота над уровнем моря: 11 м

Текущие метеонаблюдения

Эта сводка был подготовлена 1 час и 3 минут назад, в 06:55 UTC
Ветер 5 Узел от юго-западный
Температура 11°C
Влажность 76%
Давление 1026 hPa
Видимость: 7000 м
небольшая облачность на высоте 2000 фута

METAR: HLLM 140655Z 22005KT 7000 FEW020 11/07 Q1026

Время: 09:58 (07:58 UTC)

Прогноз

Эта сводка был подготовлена 2 часа и 58 минут назад, в 05:00 UTC
Прогноз действительный с 14-го 06 UTC до 15-го 06 UTC
Ветер 2 Узел переменных направлений
Видимость: 8000 м
Отдельные облака на высоте 2000 фута
изменения
С 14-го 10 UTC до 14-го 12 UTC
Ветер 10 Узел от северно-северо-западный
изменения
С 14-го 16 UTC до 14-го 18 UTC
Ветер 2 Узел переменных направлений

TAF: HLLM 140500Z 1406/1506 VRB02KT 8000 SCT020 BECMG 1410/1412 33010KT BECMG 1416/1418 VRB02KT

Метеонаблюдения и прогнозы для более 4000 аэропортов (сводки METAR и TAF).

Имеющиеся станции представлены на карте желтыми и красными точками.

Чтобы увидеть название станции, наведите на нее мышь.

Затем щелкните, чтобы увидеть метеонаблюдения и метеопрогнозы.

Управление картой: чтобы увеличить масштаб, щелкните зеленые кнопки с черным крестиком; чтобы уменьшить масштаб, щелкните зеленую кнопку с тире; для просмотра соседних карт щелкайте зеленые стрелки.


METAR-TAF: